sensor_id;sensor_type;location;lat;lon;timestamp;pressure;altitude;pressure_sealevel;temperature;humidity
17764;BME280;22245;52.832;13.816;2022-12-18T00:00:57;103101.09;;;-3.41;77.46
17764;BME280;22245;52.832;13.816;2022-12-18T00:04:21;103115.84;;;-3.41;77.25
17764;BME280;22245;52.832;13.816;2022-12-18T00:07:45;103110.59;;;-3.43;76.31
17764;BME280;22245;52.832;13.816;2022-12-18T00:11:08;103122.75;;;-3.45;76.70
17764;BME280;22245;52.832;13.816;2022-12-18T00:14:30;103117.53;;;-3.45;77.34
17764;BME280;22245;52.832;13.816;2022-12-18T00:17:52;103129.66;;;-3.47;77.11
17764;BME280;22245;52.832;13.816;2022-12-18T00:21:14;103133.16;;;-3.45;77.02
17764;BME280;22245;52.832;13.816;2022-12-18T00:24:37;103133.94;;;-3.52;76.76
17764;BME280;22245;52.832;13.816;2022-12-18T00:27:58;103130.44;;;-3.54;76.00
17764;BME280;22245;52.832;13.816;2022-12-18T00:31:21;103140.00;;;-3.53;75.95
17764;BME280;22245;52.832;13.816;2022-12-18T00:34:46;103134.81;;;-3.55;75.73
17764;BME280;22245;52.832;13.816;2022-12-18T00:38:08;103129.56;;;-3.56;75.32
17764;BME280;22245;52.832;13.816;2022-12-18T00:41:31;103127.81;;;-3.59;75.35
17764;BME280;22245;52.832;13.816;2022-12-18T00:45:11;103132.16;;;-3.58;75.61
17764;BME280;22245;52.832;13.816;2022-12-18T00:48:32;103142.59;;;-3.58;76.10
17764;BME280;22245;52.832;13.816;2022-12-18T00:51:57;103132.94;;;-3.62;75.43
17764;BME280;22245;52.832;13.816;2022-12-18T00:55:19;103143.34;;;-3.65;76.40
17764;BME280;22245;52.832;13.816;2022-12-18T00:58:42;103149.41;;;-3.68;75.31
17764;BME280;22245;52.832;13.816;2022-12-18T01:02:04;103139.78;;;-3.72;75.48
17764;BME280;22245;52.832;13.816;2022-12-18T01:05:25;103153.63;;;-3.76;76.19
17764;BME280;22245;52.832;13.816;2022-12-18T01:08:47;103150.13;;;-3.78;76.59
17764;BME280;22245;52.832;13.816;2022-12-18T01:12:09;103153.56;;;-3.79;76.61
17764;BME280;22245;52.832;13.816;2022-12-18T01:15:32;103150.06;;;-3.83;76.50
17764;BME280;22245;52.832;13.816;2022-12-18T01:18:54;103162.13;;;-3.86;76.45
17764;BME280;22245;52.832;13.816;2022-12-18T01:22:16;103151.72;;;-3.86;76.63
17764;BME280;22245;52.832;13.816;2022-12-18T01:25:38;103149.13;;;-3.86;76.79
17764;BME280;22245;52.832;13.816;2022-12-18T01:29:02;103155.22;;;-3.84;76.83
17764;BME280;22245;52.832;13.816;2022-12-18T01:32:25;103165.59;;;-3.87;75.36
17764;BME280;22245;52.832;13.816;2022-12-18T01:35:46;103163.00;;;-3.87;74.87
17764;BME280;22245;52.832;13.816;2022-12-18T01:39:11;103169.91;;;-3.89;74.88
17764;BME280;22245;52.832;13.816;2022-12-18T01:42:34;103168.16;;;-3.92;75.82
17764;BME280;22245;52.832;13.816;2022-12-18T01:45:59;103162.00;;;-3.96;75.27
17764;BME280;22245;52.832;13.816;2022-12-18T01:49:22;103161.13;;;-3.98;75.28
17764;BME280;22245;52.832;13.816;2022-12-18T01:52:47;103170.63;;;-4.00;75.84
17764;BME280;22245;52.832;13.816;2022-12-18T01:56:12;103177.50;;;-4.05;76.11
17764;BME280;22245;52.832;13.816;2022-12-18T01:59:35;103175.75;;;-4.04;75.62
17764;BME280;22245;52.832;13.816;2022-12-18T02:02:58;103171.44;;;-4.04;76.08
17764;BME280;22245;52.832;13.816;2022-12-18T02:06:28;103171.41;;;-4.05;75.36
17764;BME280;22245;52.832;13.816;2022-12-18T02:09:59;103171.41;;;-4.05;75.51
17764;BME280;22245;52.832;13.816;2022-12-18T02:13:27;103182.72;;;-4.05;75.24
17764;BME280;22245;52.832;13.816;2022-12-18T02:16:54;103178.34;;;-4.06;75.65
17764;BME280;22245;52.832;13.816;2022-12-18T02:20:23;103171.38;;;-4.09;74.78
17764;BME280;22245;52.832;13.816;2022-12-18T02:23:53;103189.56;;;-4.10;76.15
17764;BME280;22245;52.832;13.816;2022-12-18T02:27:20;103181.78;;;-4.09;76.34
17764;BME280;22245;52.832;13.816;2022-12-18T02:30:44;103180.06;;;-4.08;75.11
17764;BME280;22245;52.832;13.816;2022-12-18T02:34:07;103187.03;;;-4.07;75.22
17764;BME280;22245;52.832;13.816;2022-12-18T02:37:32;103186.13;;;-4.09;75.58
17764;BME280;22245;52.832;13.816;2022-12-18T02:40:59;103182.63;;;-4.11;76.27
17764;BME280;22245;52.832;13.816;2022-12-18T02:44:23;103191.28;;;-4.12;75.32
17764;BME280;22245;52.832;13.816;2022-12-18T02:47:48;103188.59;;;-4.17;75.97
17764;BME280;22245;52.832;13.816;2022-12-18T02:51:16;103196.34;;;-4.18;76.26
17764;BME280;22245;52.832;13.816;2022-12-18T02:54:51;103201.56;;;-4.20;76.03
17764;BME280;22245;52.832;13.816;2022-12-18T02:58:19;103197.19;;;-4.21;76.55
17764;BME280;22245;52.832;13.816;2022-12-18T03:01:52;103202.41;;;-4.21;77.10
17764;BME280;22245;52.832;13.816;2022-12-18T03:05:18;103195.41;;;-4.24;76.50
17764;BME280;22245;52.832;13.816;2022-12-18T03:08:44;103194.56;;;-4.23;76.74
17764;BME280;22245;52.832;13.816;2022-12-18T03:12:12;103204.06;;;-4.25;77.05
17764;BME280;22245;52.832;13.816;2022-12-18T03:15:51;103205.81;;;-4.24;76.23
17764;BME280;22245;52.832;13.816;2022-12-18T03:19:18;103211.94;;;-4.22;76.00
17764;BME280;22245;52.832;13.816;2022-12-18T03:22:45;103210.97;;;-4.27;76.43
17764;BME280;22245;52.832;13.816;2022-12-18T03:26:12;103208.38;;;-4.27;76.38
17764;BME280;22245;52.832;13.816;2022-12-18T03:29:40;103209.28;;;-4.26;76.20
17764;BME280;22245;52.832;13.816;2022-12-18T03:33:09;103213.56;;;-4.28;76.17
17764;BME280;22245;52.832;13.816;2022-12-18T03:36:38;103213.53;;;-4.30;75.75
17764;BME280;22245;52.832;13.816;2022-12-18T03:40:00;103219.63;;;-4.28;75.09
17764;BME280;22245;52.832;13.816;2022-12-18T03:43:34;103218.78;;;-4.27;74.82
17764;BME280;22245;52.832;13.816;2022-12-18T03:47:01;103219.69;;;-4.26;74.59
17764;BME280;22245;52.832;13.816;2022-12-18T03:50:36;103216.13;;;-4.30;74.39
17764;BME280;22245;52.832;13.816;2022-12-18T03:54:02;103212.69;;;-4.29;74.78
17764;BME280;22245;52.832;13.816;2022-12-18T03:57:32;103215.22;;;-4.32;74.06
17764;BME280;22245;52.832;13.816;2022-12-18T04:00:59;103214.31;;;-4.36;75.10
17764;BME280;22245;52.832;13.816;2022-12-18T04:04:23;103222.09;;;-4.37;74.88
17764;BME280;22245;52.832;13.816;2022-12-18T04:07:48;103215.13;;;-4.38;74.66
17764;BME280;22245;52.832;13.816;2022-12-18T04:11:12;103222.00;;;-4.42;75.10
17764;BME280;22245;52.832;13.816;2022-12-18T04:14:33;103208.97;;;-4.42;75.55
17764;BME280;22245;52.832;13.816;2022-12-18T04:17:57;103208.88;;;-4.48;75.63
17764;BME280;22245;52.832;13.816;2022-12-18T04:21:25;103214.97;;;-4.47;74.82
17764;BME280;22245;52.832;13.816;2022-12-18T04:24:47;103229.72;;;-4.46;75.34
17764;BME280;22245;52.832;13.816;2022-12-18T04:28:19;103225.38;;;-4.47;74.78
17764;BME280;22245;52.832;13.816;2022-12-18T04:31:41;103230.59;;;-4.47;74.89
17764;BME280;22245;52.832;13.816;2022-12-18T04:35:04;103222.78;;;-4.47;75.49
17764;BME280;22245;52.832;13.816;2022-12-18T04:38:31;103226.22;;;-4.48;74.66
17764;BME280;22245;52.832;13.816;2022-12-18T04:41:59;103232.28;;;-4.49;75.41
17764;BME280;22245;52.832;13.816;2022-12-18T04:45:23;103225.34;;;-4.49;75.26
17764;BME280;22245;52.832;13.816;2022-12-18T04:48:46;103221.88;;;-4.49;75.23
17764;BME280;22245;52.832;13.816;2022-12-18T04:52:08;103222.75;;;-4.49;74.36
17764;BME280;22245;52.832;13.816;2022-12-18T04:55:29;103230.53;;;-4.49;75.09
17764;BME280;22245;52.832;13.816;2022-12-18T04:58:51;103233.13;;;-4.51;74.19
17764;BME280;22245;52.832;13.816;2022-12-18T05:02:14;103243.53;;;-4.49;74.92
17764;BME280;22245;52.832;13.816;2022-12-18T05:05:36;103248.78;;;-4.47;74.80
17764;BME280;22245;52.832;13.816;2022-12-18T05:08:58;103249.69;;;-4.45;74.47
17764;BME280;22245;52.832;13.816;2022-12-18T05:12:19;103251.34;;;-4.51;74.33
17764;BME280;22245;52.832;13.816;2022-12-18T05:15:41;103255.66;;;-4.51;73.58
17764;BME280;22245;52.832;13.816;2022-12-18T05:19:04;103263.44;;;-4.53;74.09
17764;BME280;22245;52.832;13.816;2022-12-18T05:22:26;103262.50;;;-4.55;73.27
17764;BME280;22245;52.832;13.816;2022-12-18T05:25:50;103273.75;;;-4.56;73.61
17764;BME280;22245;52.832;13.816;2022-12-18T05:29:12;103278.97;;;-4.56;73.78
17764;BME280;22245;52.832;13.816;2022-12-18T05:32:34;103280.66;;;-4.58;73.60
17764;BME280;22245;52.832;13.816;2022-12-18T05:35:58;103271.94;;;-4.61;73.91
17764;BME280;22245;52.832;13.816;2022-12-18T05:39:24;103272.78;;;-4.62;73.84
17764;BME280;22245;52.832;13.816;2022-12-18T05:42:46;103288.34;;;-4.64;73.93
17764;BME280;22245;52.832;13.816;2022-12-18T05:46:11;103287.50;;;-4.65;73.27
17764;BME280;22245;52.832;13.816;2022-12-18T05:49:33;103290.09;;;-4.65;73.69
17764;BME280;22245;52.832;13.816;2022-12-18T05:52:56;103297.91;;;-4.63;73.04
17764;BME280;22245;52.832;13.816;2022-12-18T05:56:19;103292.63;;;-4.68;73.10
17764;BME280;22245;52.832;13.816;2022-12-18T05:59:41;103289.13;;;-4.68;72.92
17764;BME280;22245;52.832;13.816;2022-12-18T06:03:03;103299.47;;;-4.71;72.94
17764;BME280;22245;52.832;13.816;2022-12-18T06:06:26;103303.78;;;-4.73;73.04
17764;BME280;22245;52.832;13.816;2022-12-18T06:09:50;103299.47;;;-4.73;72.81
17764;BME280;22245;52.832;13.816;2022-12-18T06:13:11;103305.47;;;-4.74;73.00
17764;BME280;22245;52.832;13.816;2022-12-18T06:16:33;103304.63;;;-4.74;73.02
17764;BME280;22245;52.832;13.816;2022-12-18T06:19:55;103308.03;;;-4.77;73.10
17764;BME280;22245;52.832;13.816;2022-12-18T06:23:16;103319.22;;;-4.81;73.25
17764;BME280;22245;52.832;13.816;2022-12-18T06:26:40;103307.00;;;-4.85;73.14
17764;BME280;22245;52.832;13.816;2022-12-18T06:30:02;103321.66;;;-4.89;73.25
17764;BME280;22245;52.832;13.816;2022-12-18T06:33:25;103332.84;;;-4.91;73.62
17764;BME280;22245;52.832;13.816;2022-12-18T06:36:48;103330.22;;;-4.93;73.63
17764;BME280;22245;52.832;13.816;2022-12-18T06:40:09;103337.09;;;-4.95;73.70
17764;BME280;22245;52.832;13.816;2022-12-18T06:43:33;103365.75;;;-4.94;73.78
17764;BME280;22245;52.832;13.816;2022-12-18T06:46:54;103375.34;;;-4.91;73.44
17764;BME280;22245;52.832;13.816;2022-12-18T06:50:16;103371.91;;;-4.90;73.29
17764;BME280;22245;52.832;13.816;2022-12-18T06:53:38;103374.44;;;-4.91;72.86
17764;BME280;22245;52.832;13.816;2022-12-18T06:57:00;103369.25;;;-4.91;73.19
17764;BME280;22245;52.832;13.816;2022-12-18T07:00:23;103357.06;;;-4.94;73.60
17764;BME280;22245;52.832;13.816;2022-12-18T07:03:45;103367.44;;;-4.96;73.22
17764;BME280;22245;52.832;13.816;2022-12-18T07:07:07;103359.59;;;-4.97;73.36
17764;BME280;22245;52.832;13.816;2022-12-18T07:10:29;103365.63;;;-4.98;73.40
17764;BME280;22245;52.832;13.816;2022-12-18T07:13:52;103359.53;;;-5.00;73.37
17764;BME280;22245;52.832;13.816;2022-12-18T07:17:16;103361.28;;;-4.99;73.53
17764;BME280;22245;52.832;13.816;2022-12-18T07:20:37;103375.19;;;-4.97;73.36
17764;BME280;22245;52.832;13.816;2022-12-18T07:23:59;103367.38;;;-4.97;73.23
17764;BME280;22245;52.832;13.816;2022-12-18T07:27:21;103377.75;;;-4.99;73.28
17764;BME280;22245;52.832;13.816;2022-12-18T07:30:43;103378.63;;;-4.98;73.31
17764;BME280;22245;52.832;13.816;2022-12-18T07:34:09;103382.97;;;-4.99;73.27
17764;BME280;22245;52.832;13.816;2022-12-18T07:37:31;103385.56;;;-4.97;73.17
17764;BME280;22245;52.832;13.816;2022-12-18T07:40:53;103383.81;;;-4.98;73.24
17764;BME280;22245;52.832;13.816;2022-12-18T07:44:14;103391.66;;;-4.97;73.13
17764;BME280;22245;52.832;13.816;2022-12-18T07:47:36;103394.22;;;-4.98;73.06
17764;BME280;22245;52.832;13.816;2022-12-18T07:50:59;103400.34;;;-4.96;73.41
17764;BME280;22245;52.832;13.816;2022-12-18T07:54:21;103393.44;;;-4.96;73.27
17764;BME280;22245;52.832;13.816;2022-12-18T07:57:42;103394.28;;;-4.95;73.18
17764;BME280;22245;52.832;13.816;2022-12-18T08:01:18;103396.03;;;-4.96;73.18
17764;BME280;22245;52.832;13.816;2022-12-18T08:04:41;103396.94;;;-4.94;73.28
17764;BME280;22245;52.832;13.816;2022-12-18T08:08:04;103385.69;;;-4.92;73.55
17764;BME280;22245;52.832;13.816;2022-12-18T08:11:27;103389.19;;;-4.92;73.76
17764;BME280;22245;52.832;13.816;2022-12-18T08:14:49;103392.69;;;-4.90;73.81
17764;BME280;22245;52.832;13.816;2022-12-18T08:18:11;103387.56;;;-4.87;74.03
17764;BME280;22245;52.832;13.816;2022-12-18T08:21:33;103387.56;;;-4.85;74.23
17764;BME280;22245;52.832;13.816;2022-12-18T08:24:57;103384.19;;;-4.83;73.62
17764;BME280;22245;52.832;13.816;2022-12-18T08:28:19;103388.50;;;-4.83;73.70
17764;BME280;22245;52.832;13.816;2022-12-18T08:31:40;103386.78;;;-4.83;74.32
17764;BME280;22245;52.832;13.816;2022-12-18T08:35:03;103400.72;;;-4.79;73.46
17764;BME280;22245;52.832;13.816;2022-12-18T08:38:25;103405.13;;;-4.76;73.82
17764;BME280;22245;52.832;13.816;2022-12-18T08:41:47;103406.81;;;-4.77;73.94
17764;BME280;22245;52.832;13.816;2022-12-18T08:45:29;103405.13;;;-4.76;73.60
17764;BME280;22245;52.832;13.816;2022-12-18T08:48:51;103403.34;;;-4.77;73.94
17764;BME280;22245;52.832;13.816;2022-12-18T08:52:13;103412.06;;;-4.75;73.94
17764;BME280;22245;52.832;13.816;2022-12-18T08:55:35;103419.09;;;-4.71;74.36
17764;BME280;22245;52.832;13.816;2022-12-18T08:58:58;103413.88;;;-4.71;73.58
17764;BME280;22245;52.832;13.816;2022-12-18T09:02:20;103427.81;;;-4.69;74.30
17764;BME280;22245;52.832;13.816;2022-12-18T09:05:42;103436.50;;;-4.69;74.40
17764;BME280;22245;52.832;13.816;2022-12-18T09:09:04;103426.13;;;-4.67;74.44
17764;BME280;22245;52.832;13.816;2022-12-18T09:12:26;103427.03;;;-4.65;74.66
17764;BME280;22245;52.832;13.816;2022-12-18T09:15:50;103420.13;;;-4.65;74.09
17764;BME280;22245;52.832;13.816;2022-12-18T09:19:12;103424.47;;;-4.62;74.58
17764;BME280;22245;52.832;13.816;2022-12-18T09:22:34;103428.00;;;-4.60;74.91
17764;BME280;22245;52.832;13.816;2022-12-18T09:25:58;103441.84;;;-4.61;75.34
17764;BME280;22245;52.832;13.816;2022-12-18T09:29:20;103454.06;;;-4.57;75.31
17764;BME280;22245;52.832;13.816;2022-12-18T09:32:43;103447.19;;;-4.55;75.45
17764;BME280;22245;52.832;13.816;2022-12-18T09:36:07;103441.16;;;-4.54;75.76
17764;BME280;22245;52.832;13.816;2022-12-18T09:39:29;103437.78;;;-4.48;75.08
17764;BME280;22245;52.832;13.816;2022-12-18T09:42:53;103433.59;;;-4.41;75.90
17764;BME280;22245;52.832;13.816;2022-12-18T09:46:20;103448.38;;;-4.39;75.31
17764;BME280;22245;52.832;13.816;2022-12-18T09:49:49;103435.47;;;-4.36;75.51
17764;BME280;22245;52.832;13.816;2022-12-18T09:53:15;103424.28;;;-4.31;75.08
17764;BME280;22245;52.832;13.816;2022-12-18T09:56:40;103414.84;;;-4.26;75.15
17764;BME280;22245;52.832;13.816;2022-12-18T10:00:09;103413.16;;;-4.23;75.43
17764;BME280;22245;52.832;13.816;2022-12-18T10:03:34;103416.72;;;-4.17;75.17
17764;BME280;22245;52.832;13.816;2022-12-18T10:07:00;103408.22;;;-4.10;76.15
17764;BME280;22245;52.832;13.816;2022-12-18T10:10:37;103394.34;;;-4.09;76.16
17764;BME280;22245;52.832;13.816;2022-12-18T10:14:07;103397.91;;;-4.04;75.03
17764;BME280;22245;52.832;13.816;2022-12-18T10:17:35;103407.53;;;-3.98;75.00
17764;BME280;22245;52.832;13.816;2022-12-18T10:21:05;103398.13;;;-3.92;75.91
17764;BME280;22245;52.832;13.816;2022-12-18T10:24:35;103396.47;;;-3.86;74.95
17764;BME280;22245;52.832;13.816;2022-12-18T10:28:07;103382.63;;;-3.85;76.17
17764;BME280;22245;52.832;13.816;2022-12-18T10:31:31;103375.69;;;-3.83;75.93
17764;BME280;22245;52.832;13.816;2022-12-18T10:34:55;103361.06;;;-3.78;76.27
17764;BME280;22245;52.832;13.816;2022-12-18T10:38:22;103361.13;;;-3.73;76.42
17764;BME280;22245;52.832;13.816;2022-12-18T10:41:45;103357.72;;;-3.69;76.37
17764;BME280;22245;52.832;13.816;2022-12-18T10:45:10;103349.13;;;-3.64;76.71
17764;BME280;22245;52.832;13.816;2022-12-18T10:48:33;103353.59;;;-3.56;76.60
17764;BME280;22245;52.832;13.816;2022-12-18T10:52:11;103346.69;;;-3.54;76.25
17764;BME280;22245;52.832;13.816;2022-12-18T10:55:38;103346.75;;;-3.50;75.70
17764;BME280;22245;52.832;13.816;2022-12-18T10:59:03;103352.03;;;-3.45;75.22
17764;BME280;22245;52.832;13.816;2022-12-18T11:02:28;103349.47;;;-3.42;75.38
17764;BME280;22245;52.832;13.816;2022-12-18T11:06:02;103338.25;;;-3.38;76.64
17764;BME280;22245;52.832;13.816;2022-12-18T11:09:25;103347.00;;;-3.34;76.53
17764;BME280;22245;52.832;13.816;2022-12-18T11:12:48;103330.53;;;-3.30;76.09
17764;BME280;22245;52.832;13.816;2022-12-18T11:16:19;103331.47;;;-3.25;75.94
17764;BME280;22245;52.832;13.816;2022-12-18T11:19:41;103338.53;;;-3.21;75.99
17764;BME280;22245;52.832;13.816;2022-12-18T11:23:04;103342.03;;;-3.17;76.22
17764;BME280;22245;52.832;13.816;2022-12-18T11:26:33;103337.75;;;-3.12;74.91
17764;BME280;22245;52.832;13.816;2022-12-18T11:30:08;103328.22;;;-3.10;75.71
17764;BME280;22245;52.832;13.816;2022-12-18T11:33:32;103322.19;;;-3.07;76.12
17764;BME280;22245;52.832;13.816;2022-12-18T11:36:54;103339.59;;;-3.05;75.10
17764;BME280;22245;52.832;13.816;2022-12-18T11:40:18;103328.38;;;-3.00;75.50
17764;BME280;22245;52.832;13.816;2022-12-18T11:43:45;103331.88;;;-2.98;75.80
17764;BME280;22245;52.832;13.816;2022-12-18T11:47:15;103342.34;;;-2.95;75.95
17764;BME280;22245;52.832;13.816;2022-12-18T11:50:47;103349.31;;;-2.93;74.87
17764;BME280;22245;52.832;13.816;2022-12-18T11:54:12;103359.78;;;-2.89;75.25
17764;BME280;22245;52.832;13.816;2022-12-18T11:57:39;103355.47;;;-2.89;75.03
17764;BME280;22245;52.832;13.816;2022-12-18T12:01:09;103352.84;;;-2.89;75.85
17764;BME280;22245;52.832;13.816;2022-12-18T12:04:56;103349.41;;;-2.85;75.86
17764;BME280;22245;52.832;13.816;2022-12-18T12:08:33;103366.78;;;-2.85;74.32
17764;BME280;22245;52.832;13.816;2022-12-18T12:12:10;103367.69;;;-2.85;74.74
17764;BME280;22245;52.832;13.816;2022-12-18T12:15:43;103361.56;;;-2.85;76.19
17764;BME280;22245;52.832;13.816;2022-12-18T12:19:19;103352.94;;;-2.83;75.03
17764;BME280;22245;52.832;13.816;2022-12-18T12:22:50;103351.22;;;-2.81;75.37
17764;BME280;22245;52.832;13.816;2022-12-18T12:26:21;103366.03;;;-2.78;74.63
17764;BME280;22245;52.832;13.816;2022-12-18T12:29:58;103366.91;;;-2.78;74.82
17764;BME280;22245;52.832;13.816;2022-12-18T12:33:31;103371.25;;;-2.77;74.31
17764;BME280;22245;52.832;13.816;2022-12-18T12:37:10;103375.63;;;-2.76;74.61
17764;BME280;22245;52.832;13.816;2022-12-18T12:40:54;103381.72;;;-2.73;75.94
17764;BME280;22245;52.832;13.816;2022-12-18T12:44:28;103385.19;;;-2.74;75.02
17764;BME280;22245;52.832;13.816;2022-12-18T12:47:52;103398.28;;;-2.73;74.84
17764;BME280;22245;52.832;13.816;2022-12-18T12:51:18;103396.53;;;-2.72;75.63
17764;BME280;22245;52.832;13.816;2022-12-18T12:54:40;103390.50;;;-2.68;75.80
17764;BME280;22245;52.832;13.816;2022-12-18T12:58:08;103371.41;;;-2.66;75.06
17764;BME280;22245;52.832;13.816;2022-12-18T13:01:40;103366.22;;;-2.64;75.88
17764;BME280;22245;52.832;13.816;2022-12-18T13:05:12;103358.44;;;-2.61;75.93
17764;BME280;22245;52.832;13.816;2022-12-18T13:08:52;103354.97;;;-2.58;74.93
17764;BME280;22245;52.832;13.816;2022-12-18T13:12:16;103354.09;;;-2.59;74.50
17764;BME280;22245;52.832;13.816;2022-12-18T13:16:05;103355.00;;;-2.57;75.02
17764;BME280;22245;52.832;13.816;2022-12-18T13:19:29;103341.97;;;-2.55;75.42
17764;BME280;22245;52.832;13.816;2022-12-18T13:22:50;103334.13;;;-2.55;74.54
17764;BME280;22245;52.832;13.816;2022-12-18T13:26:29;103339.34;;;-2.55;74.08
17764;BME280;22245;52.832;13.816;2022-12-18T13:29:52;103330.66;;;-2.56;73.79
17764;BME280;22245;52.832;13.816;2022-12-18T13:33:46;103339.31;;;-2.58;74.38
17764;BME280;22245;52.832;13.816;2022-12-18T13:37:51;103344.53;;;-2.60;74.74
17764;BME280;22245;52.832;13.816;2022-12-18T13:41:24;103345.38;;;-2.59;75.20
17764;BME280;22245;52.832;13.816;2022-12-18T13:44:48;103354.97;;;-2.60;74.15
17764;BME280;22245;52.832;13.816;2022-12-18T13:48:19;103358.44;;;-2.61;75.17
17764;BME280;22245;52.832;13.816;2022-12-18T13:51:44;103355.81;;;-2.61;73.98
17764;BME280;22245;52.832;13.816;2022-12-18T13:55:17;103346.25;;;-2.62;74.76
17764;BME280;22245;52.832;13.816;2022-12-18T13:58:40;103351.50;;;-2.59;73.57
17764;BME280;22245;52.832;13.816;2022-12-18T14:02:12;103329.69;;;-2.63;74.33
17764;BME280;22245;52.832;13.816;2022-12-18T14:05:36;103334.94;;;-2.61;74.27
17764;BME280;22245;52.832;13.816;2022-12-18T14:09:02;103323.63;;;-2.63;73.60
17764;BME280;22245;52.832;13.816;2022-12-18T14:12:31;103302.75;;;-2.63;74.40
17764;BME280;22245;52.832;13.816;2022-12-18T14:16:14;103297.47;;;-2.68;73.32
17764;BME280;22245;52.832;13.816;2022-12-18T14:19:37;103300.06;;;-2.66;73.79
17764;BME280;22245;52.832;13.816;2022-12-18T14:23:02;103299.19;;;-2.70;73.94
17764;BME280;22245;52.832;13.816;2022-12-18T14:26:26;103294.81;;;-2.69;73.74
17764;BME280;22245;52.832;13.816;2022-12-18T14:29:51;103288.72;;;-2.71;73.32
17764;BME280;22245;52.832;13.816;2022-12-18T14:33:14;103281.75;;;-2.74;72.69
17764;BME280;22245;52.832;13.816;2022-12-18T14:36:36;103301.72;;;-2.76;72.56
17764;BME280;22245;52.832;13.816;2022-12-18T14:40:02;103285.19;;;-2.78;73.85
17764;BME280;22245;52.832;13.816;2022-12-18T14:43:32;103282.53;;;-2.81;73.67
17764;BME280;22245;52.832;13.816;2022-12-18T14:46:56;103266.00;;;-2.82;73.87
17764;BME280;22245;52.832;13.816;2022-12-18T14:50:18;103259.91;;;-2.82;74.11
17764;BME280;22245;52.832;13.816;2022-12-18T14:53:41;103251.19;;;-2.84;73.95
17764;BME280;22245;52.832;13.816;2022-12-18T14:57:20;103247.72;;;-2.85;74.30
17764;BME280;22245;52.832;13.816;2022-12-18T15:00:42;103243.38;;;-2.83;74.43
17764;BME280;22245;52.832;13.816;2022-12-18T15:04:25;103257.22;;;-2.88;74.96
17764;BME280;22245;52.832;13.816;2022-12-18T15:07:48;103264.19;;;-2.87;73.94
17764;BME280;22245;52.832;13.816;2022-12-18T15:11:42;103261.56;;;-2.87;74.27
17764;BME280;22245;52.832;13.816;2022-12-18T15:15:43;103260.72;;;-2.88;74.19
17764;BME280;22245;52.832;13.816;2022-12-18T15:18:47;103278.13;;;-2.87;74.28
17764;BME280;22245;52.832;13.816;2022-12-18T15:22:25;103289.38;;;-2.89;74.38
17764;BME280;22245;52.832;13.816;2022-12-18T15:25:49;103298.09;;;-2.89;74.40
17764;BME280;22245;52.832;13.816;2022-12-18T15:29:18;103308.47;;;-2.91;74.04
17764;BME280;22245;52.832;13.816;2022-12-18T15:32:43;103300.66;;;-2.92;74.31
17764;BME280;22245;52.832;13.816;2022-12-18T15:36:09;103302.41;;;-2.91;74.73
17764;BME280;22245;52.832;13.816;2022-12-18T15:39:33;103304.16;;;-2.90;74.81
17764;BME280;22245;52.832;13.816;2022-12-18T15:42:56;103298.91;;;-2.92;74.90
17764;BME280;22245;52.832;13.816;2022-12-18T15:46:34;103289.34;;;-2.93;74.35
17764;BME280;22245;52.832;13.816;2022-12-18T15:49:56;103285.91;;;-2.90;73.86
17764;BME280;22245;52.832;13.816;2022-12-18T15:53:18;103292.84;;;-2.91;73.92
17764;BME280;22245;52.832;13.816;2022-12-18T15:56:41;103285.03;;;-2.89;73.90
17764;BME280;22245;52.832;13.816;2022-12-18T16:00:21;103277.19;;;-2.91;73.67
17764;BME280;22245;52.832;13.816;2022-12-18T16:03:42;103283.28;;;-2.90;74.83
17764;BME280;22245;52.832;13.816;2022-12-18T16:07:04;103284.16;;;-2.89;74.00
17764;BME280;22245;52.832;13.816;2022-12-18T16:10:40;103278.91;;;-2.94;74.19
17764;BME280;22245;52.832;13.816;2022-12-18T16:14:04;103267.56;;;-2.95;75.04
17764;BME280;22245;52.832;13.816;2022-12-18T16:17:27;103265.88;;;-2.93;74.69
17764;BME280;22245;52.832;13.816;2022-12-18T16:20:49;103264.13;;;-2.94;73.73
17764;BME280;22245;52.832;13.816;2022-12-18T16:24:14;103252.81;;;-2.93;74.02
17764;BME280;22245;52.832;13.816;2022-12-18T16:27:36;103243.28;;;-2.92;75.04
17764;BME280;22245;52.832;13.816;2022-12-18T16:30:59;103262.44;;;-2.90;75.10
17764;BME280;22245;52.832;13.816;2022-12-18T16:34:22;103271.09;;;-2.91;74.31
17764;BME280;22245;52.832;13.816;2022-12-18T16:37:48;103259.81;;;-2.90;74.71
17764;BME280;22245;52.832;13.816;2022-12-18T16:41:17;103249.34;;;-2.92;74.39
17764;BME280;22245;52.832;13.816;2022-12-18T16:44:55;103251.09;;;-2.92;73.64
17764;BME280;22245;52.832;13.816;2022-12-18T16:48:18;103246.75;;;-2.93;73.86
17764;BME280;22245;52.832;13.816;2022-12-18T16:51:40;103238.06;;;-2.92;74.70
17764;BME280;22245;52.832;13.816;2022-12-18T16:55:02;103239.81;;;-2.91;73.64
17764;BME280;22245;52.832;13.816;2022-12-18T16:58:23;103253.72;;;-2.92;74.60
17764;BME280;22245;52.832;13.816;2022-12-18T17:01:45;103258.06;;;-2.91;74.48
17764;BME280;22245;52.832;13.816;2022-12-18T17:05:09;103257.22;;;-2.90;74.73
17764;BME280;22245;52.832;13.816;2022-12-18T17:08:31;103259.78;;;-2.92;74.14
17764;BME280;22245;52.832;13.816;2022-12-18T17:11:52;103271.09;;;-2.91;74.65
17764;BME280;22245;52.832;13.816;2022-12-18T17:15:14;103268.47;;;-2.94;74.08
17764;BME280;22245;52.832;13.816;2022-12-18T17:18:37;103265.00;;;-2.93;73.85
17764;BME280;22245;52.832;13.816;2022-12-18T17:22:00;103260.66;;;-2.94;73.61
17764;BME280;22245;52.832;13.816;2022-12-18T17:25:21;103251.94;;;-2.95;73.33
17764;BME280;22245;52.832;13.816;2022-12-18T17:28:44;103247.59;;;-2.94;73.96
17764;BME280;22245;52.832;13.816;2022-12-18T17:32:06;103255.44;;;-2.94;73.12
17764;BME280;22245;52.832;13.816;2022-12-18T17:35:28;103268.47;;;-2.93;74.54
17764;BME280;22245;52.832;13.816;2022-12-18T17:38:52;103265.88;;;-2.94;74.51
17764;BME280;22245;52.832;13.816;2022-12-18T17:42:14;103281.50;;;-2.94;73.26